createdAt,value
2023-02-24T00:02:00.130Z,13.10
2023-02-24T00:04:30.030Z,13.70
2023-02-24T00:06:59.857Z,13.93
2023-02-24T00:09:31.234Z,14.38
2023-02-24T00:12:02.299Z,14.35
2023-02-24T00:14:32.629Z,16.17
2023-02-24T00:17:01.632Z,12.65
2023-02-24T00:19:32.736Z,14.15
2023-02-24T00:22:01.977Z,14.05
2023-02-24T00:24:32.543Z,14.68
2023-02-24T00:27:03.126Z,12.13
2023-02-24T00:29:32.806Z,12.75
2023-02-24T00:32:06.564Z,11.55
2023-02-24T00:34:37.775Z,11.48
2023-02-24T00:37:08.059Z,13.98
2023-02-24T00:39:41.404Z,12.60
2023-02-24T00:42:12.417Z,13.90
2023-02-24T00:44:42.379Z,11.90
2023-02-24T00:47:11.806Z,10.55
2023-02-24T00:49:43.232Z,10.57
2023-02-24T00:52:14.782Z,10.88
2023-02-24T00:54:46.278Z,11.70
2023-02-24T00:57:16.034Z,9.10
2023-02-24T00:59:47.652Z,11.18
2023-02-24T01:02:17.007Z,9.82
2023-02-24T01:04:46.676Z,10.32
2023-02-24T01:07:15.942Z,11.77
2023-02-24T01:09:45.744Z,10.23
2023-02-24T01:12:33.985Z,12.13
2023-02-24T01:15:05.048Z,10.10
2023-02-24T01:17:36.233Z,9.80
2023-02-24T01:20:16.089Z,12.25
2023-02-24T01:22:45.739Z,11.07
2023-02-24T01:25:15.657Z,10.55
2023-02-24T01:27:43.927Z,12.50
2023-02-24T01:30:16.367Z,10.55
2023-02-24T01:32:46.762Z,9.77
2023-02-24T01:35:15.864Z,10.07
2023-02-24T01:37:45.526Z,11.40
2023-02-24T01:40:21.353Z,9.95
2023-02-24T01:42:50.997Z,10.18
2023-02-24T01:45:26.036Z,12.52
2023-02-24T01:47:57.895Z,13.18
2023-02-24T01:50:27.782Z,10.98
2023-02-24T01:52:59.927Z,10.40
2023-02-24T01:55:33.558Z,10.48
2023-02-24T01:58:07.992Z,8.70
2023-02-24T02:00:45.395Z,8.20
2023-02-24T02:03:26.598Z,8.20
2023-02-24T02:06:01.172Z,10.57
2023-02-24T02:08:30.502Z,10.27
2023-02-24T02:11:06.134Z,10.15
2023-02-24T02:13:38.159Z,10.18
2023-02-24T02:16:37.949Z,12.63
2023-02-24T02:19:30.588Z,9.43
2023-02-24T02:22:19.562Z,9.52
2023-02-24T02:24:53.849Z,8.95
2023-02-24T02:27:58.589Z,10.07
2023-02-24T02:30:55.613Z,10.95
2023-02-24T02:34:02.397Z,7.60
2023-02-24T02:36:38.793Z,8.77
2023-02-24T02:39:14.879Z,10.88
2023-02-24T02:41:54.354Z,10.55
2023-02-24T02:44:32.373Z,10.20
2023-02-24T02:47:09.246Z,7.40
2023-02-24T02:49:42.185Z,10.27
2023-02-24T02:52:17.849Z,10.52
2023-02-24T02:54:51.214Z,8.85
2023-02-24T02:57:24.964Z,9.93
2023-02-24T02:59:58.344Z,7.50
2023-02-24T03:02:29.992Z,9.43
2023-02-24T03:05:03.895Z,8.30
2023-02-24T03:07:40.484Z,8.70
2023-02-24T03:10:17.755Z,8.40
2023-02-24T03:12:50.821Z,9.63
2023-02-24T03:15:22.286Z,9.13
2023-02-24T03:17:56.643Z,7.25
2023-02-24T03:20:29.853Z,10.70
2023-02-24T03:23:04.390Z,9.60
2023-02-24T03:25:39.829Z,11.05
2023-02-24T03:28:17.539Z,8.10
2023-02-24T03:30:54.101Z,9.00
2023-02-24T03:33:30.815Z,8.77
2023-02-24T03:36:01.896Z,11.18
2023-02-24T03:38:36.860Z,8.50
2023-02-24T03:41:11.279Z,8.25
2023-02-24T03:43:45.455Z,8.52
2023-02-24T03:46:16.975Z,9.00
2023-02-24T03:48:52.803Z,9.68
2023-02-24T03:51:24.374Z,7.22
2023-02-24T03:54:18.734Z,7.95
2023-02-24T03:56:58.055Z,8.68
2023-02-24T03:59:41.395Z,7.97
2023-02-24T04:02:17.120Z,7.13
2023-02-24T04:04:55.670Z,7.88
2023-02-24T04:07:52.078Z,10.05
2023-02-24T04:10:27.713Z,6.82
2023-02-24T04:13:02.176Z,7.75
2023-02-24T04:15:37.680Z,6.90
2023-02-24T04:18:12.546Z,6.25
2023-02-24T04:20:43.877Z,12.13
2023-02-24T04:23:17.418Z,7.05
2023-02-24T04:25:56.382Z,7.00
2023-02-24T04:28:26.993Z,7.20
2023-02-24T04:31:00.642Z,6.22
2023-02-24T04:33:31.811Z,6.15
2023-02-24T04:36:00.247Z,6.70
2023-02-24T04:38:29.478Z,8.77
2023-02-24T04:40:59.178Z,11.43
2023-02-24T04:43:27.404Z,7.75
2023-02-24T04:45:56.327Z,8.23
2023-02-24T04:48:24.649Z,9.27
2023-02-24T04:50:55.301Z,8.25
2023-02-24T04:53:27.202Z,7.85
2023-02-24T04:55:56.569Z,10.32
2023-02-24T04:58:28.841Z,8.07
2023-02-24T05:00:57.345Z,7.45
2023-02-24T05:03:28.481Z,9.25
2023-02-24T05:06:00.209Z,8.60
2023-02-24T05:08:30.773Z,7.20
2023-02-24T05:11:01.076Z,6.63
2023-02-24T05:13:32.059Z,12.40
2023-02-24T05:16:05.394Z,7.03
2023-02-24T05:18:37.201Z,9.75
2023-02-24T05:21:25.726Z,9.63
2023-02-24T05:23:55.633Z,9.00
2023-02-24T05:26:25.742Z,6.80
2023-02-24T05:28:59.728Z,7.25
2023-02-24T05:31:30.138Z,8.45
2023-02-24T05:34:01.509Z,8.27
2023-02-24T05:36:32.046Z,8.63
2023-02-24T05:39:06.798Z,7.03
2023-02-24T05:41:38.755Z,9.50
2023-02-24T05:44:11.913Z,6.25
2023-02-24T05:46:42.394Z,6.97
2023-02-24T05:49:15.690Z,7.53
2023-02-24T05:51:54.785Z,7.15
2023-02-24T05:54:26.111Z,9.02
2023-02-24T05:56:57.025Z,7.50
2023-02-24T05:59:32.687Z,8.20
2023-02-24T06:02:02.453Z,11.07
2023-02-24T06:04:40.329Z,11.32
2023-02-24T06:07:19.081Z,11.32
2023-02-24T06:09:50.263Z,8.00
2023-02-24T06:12:20.133Z,10.65
2023-02-24T06:14:49.874Z,8.80
2023-02-24T06:17:19.877Z,9.60
2023-02-24T06:19:51.032Z,8.88
2023-02-24T06:22:21.298Z,10.18
2023-02-24T06:24:49.962Z,9.50
2023-02-24T06:27:21.645Z,10.02
2023-02-24T06:29:54.079Z,8.77
2023-02-24T06:32:25.395Z,11.25
2023-02-24T06:34:54.455Z,8.60
2023-02-24T06:37:23.836Z,7.25
2023-02-24T06:39:52.179Z,7.72
2023-02-24T06:42:20.459Z,6.82
2023-02-24T06:44:48.990Z,6.55
2023-02-24T06:47:18.953Z,8.40
2023-02-24T06:49:48.003Z,10.05
2023-02-24T06:52:19.461Z,9.60
2023-02-24T06:54:52.356Z,9.65
2023-02-24T06:57:21.027Z,9.93
2023-02-24T06:59:50.889Z,9.50
2023-02-24T07:02:20.495Z,11.00
2023-02-24T07:04:49.179Z,9.25
2023-02-24T07:07:17.681Z,8.75
2023-02-24T07:09:46.198Z,8.63
2023-02-24T07:12:21.013Z,10.45
2023-02-24T07:14:50.511Z,11.02
2023-02-24T07:17:20.987Z,8.00
2023-02-24T07:19:49.262Z,10.70
2023-02-24T07:22:17.641Z,10.00
2023-02-24T07:24:46.748Z,8.85
2023-02-24T07:27:23.266Z,11.35
2023-02-24T07:29:53.918Z,8.43
2023-02-24T07:32:25.534Z,8.70
2023-02-24T07:34:54.370Z,8.77
2023-02-24T07:37:24.358Z,10.10
2023-02-24T07:39:53.041Z,8.13
2023-02-24T07:42:21.299Z,10.25
2023-02-24T07:44:56.138Z,8.88
2023-02-24T07:47:26.574Z,10.15
2023-02-24T07:49:55.426Z,10.88
2023-02-24T07:52:23.813Z,10.60
2023-02-24T07:54:52.075Z,9.57
2023-02-24T07:57:20.477Z,6.90
2023-02-24T07:59:48.670Z,8.27
2023-02-24T08:02:18.452Z,8.32
2023-02-24T08:04:51.738Z,10.38
2023-02-24T08:07:25.041Z,10.63
2023-02-24T08:10:24.212Z,11.35
2023-02-24T08:12:55.661Z,14.65
2023-02-24T08:15:26.167Z,9.82
2023-02-24T08:17:59.754Z,11.48
2023-02-24T08:20:36.276Z,9.40
2023-02-24T08:23:08.674Z,10.30
2023-02-24T08:25:37.070Z,9.25
2023-02-24T08:28:11.476Z,11.05
2023-02-24T08:30:45.675Z,16.15
2023-02-24T08:33:19.373Z,11.82
2023-02-24T08:35:58.021Z,9.65
2023-02-24T08:38:28.517Z,10.30
2023-02-24T08:41:04.968Z,10.23
2023-02-24T08:43:39.838Z,9.23
2023-02-24T08:46:19.269Z,12.43
2023-02-24T08:48:49.844Z,10.75
2023-02-24T08:51:22.880Z,9.27
2023-02-24T08:53:54.300Z,8.32
2023-02-24T08:56:27.326Z,8.13
2023-02-24T08:59:05.788Z,15.18
2023-02-24T09:01:36.863Z,10.25
2023-02-24T09:04:08.762Z,9.15
2023-02-24T09:06:44.311Z,13.45
2023-02-24T09:09:21.252Z,11.77
2023-02-24T09:11:56.082Z,8.25
2023-02-24T09:14:28.406Z,11.27
2023-02-24T09:17:06.262Z,12.35
2023-02-24T09:19:53.744Z,15.18
2023-02-24T09:22:40.959Z,18.65
2023-02-24T09:25:23.945Z,15.25
2023-02-24T09:27:55.966Z,12.25
2023-02-24T09:30:44.259Z,13.70
2023-02-24T09:33:22.537Z,11.25
2023-02-24T09:36:00.586Z,17.40
2023-02-24T09:38:49.096Z,13.93
2023-02-24T09:41:31.984Z,12.13
2023-02-24T09:44:07.497Z,10.15
2023-02-24T09:46:53.971Z,10.93
2023-02-24T09:49:39.884Z,11.80
2023-02-24T09:52:17.078Z,14.53
2023-02-24T09:55:09.918Z,14.23
2023-02-24T09:58:10.258Z,13.35
2023-02-24T10:00:44.366Z,11.00
2023-02-24T10:03:41.655Z,13.90
2023-02-24T10:06:21.742Z,14.80
2023-02-24T10:08:55.890Z,14.57
2023-02-24T10:11:33.992Z,15.53
2023-02-24T10:14:06.982Z,13.27
2023-02-24T10:16:46.382Z,12.18
2023-02-24T10:19:26.111Z,14.77
2023-02-24T10:22:03.452Z,18.42
2023-02-24T10:24:38.161Z,13.90
2023-02-24T10:27:17.427Z,22.30
2023-02-24T10:30:04.026Z,16.40
2023-02-24T10:32:41.369Z,13.82
2023-02-24T10:35:16.816Z,13.38
2023-02-24T10:37:45.595Z,12.60
2023-02-24T10:40:26.291Z,16.50
2023-02-24T10:43:10.681Z,10.75
2023-02-24T10:45:45.167Z,12.43
2023-02-24T10:48:40.258Z,11.70
2023-02-24T10:51:19.970Z,13.43
2023-02-24T10:54:10.211Z,12.57
2023-02-24T10:56:44.686Z,12.95
2023-02-24T10:59:31.971Z,12.30
2023-02-24T11:02:06.872Z,17.03
2023-02-24T11:05:04.629Z,13.13
2023-02-24T11:07:46.552Z,16.23
2023-02-24T11:10:26.204Z,13.33
2023-02-24T11:13:13.482Z,15.10
2023-02-24T11:16:10.663Z,15.10
2023-02-24T11:18:41.289Z,15.17
2023-02-24T11:21:14.088Z,14.37
2023-02-24T11:23:46.126Z,13.80
2023-02-24T11:26:19.616Z,14.73
2023-02-24T11:29:00.903Z,12.73
2023-02-24T11:31:43.332Z,13.50
2023-02-24T11:34:20.072Z,13.27
2023-02-24T11:36:57.212Z,15.30
2023-02-24T11:39:45.600Z,13.03
2023-02-24T11:42:19.512Z,13.87
2023-02-24T11:44:55.586Z,16.60
2023-02-24T11:47:30.136Z,13.07
2023-02-24T11:50:09.619Z,15.77
2023-02-24T11:52:43.906Z,15.43
2023-02-24T11:55:20.671Z,12.30
2023-02-24T11:57:54.611Z,16.27
2023-02-24T12:00:28.004Z,14.93
2023-02-24T12:03:04.960Z,14.70
2023-02-24T12:05:37.358Z,13.30
2023-02-24T12:08:13.504Z,12.90
2023-02-24T12:10:47.574Z,12.83
2023-02-24T12:13:24.969Z,14.33
2023-02-24T12:16:00.477Z,13.10
2023-02-24T12:18:35.122Z,12.63
2023-02-24T12:21:07.866Z,12.93
2023-02-24T12:23:39.420Z,12.50
2023-02-24T12:26:19.005Z,13.20
2023-02-24T12:29:03.783Z,15.00
2023-02-24T12:31:42.873Z,13.00
2023-02-24T12:34:21.536Z,13.60
2023-02-24T12:37:07.660Z,14.90
2023-02-24T12:39:46.874Z,14.33
2023-02-24T12:42:25.849Z,12.17
2023-02-24T12:45:05.112Z,12.63
2023-02-24T12:47:47.184Z,13.80
2023-02-24T12:50:27.357Z,15.60
2023-02-24T12:53:02.190Z,20.30
2023-02-24T12:55:38.650Z,22.40
2023-02-24T12:58:13.469Z,17.77
2023-02-24T13:00:58.131Z,19.67
2023-02-24T13:03:39.348Z,16.37
2023-02-24T13:06:17.012Z,19.43
2023-02-24T13:08:55.945Z,18.77
2023-02-24T13:11:37.785Z,19.43
2023-02-24T13:14:15.319Z,19.27
2023-02-24T13:16:43.925Z,17.48
2023-02-24T13:19:21.254Z,20.20
2023-02-24T13:22:07.606Z,16.07
2023-02-24T13:24:36.862Z,17.50
2023-02-24T13:27:23.834Z,18.80
2023-02-24T13:29:56.077Z,17.40
2023-02-24T13:32:29.845Z,22.40
2023-02-24T13:34:59.514Z,16.63
2023-02-24T13:37:31.749Z,19.85
2023-02-24T13:40:00.093Z,17.93
2023-02-24T13:42:29.763Z,19.97
2023-02-24T13:45:05.945Z,19.35
2023-02-24T13:48:09.743Z,22.30
2023-02-24T13:50:54.253Z,17.20
2023-02-24T13:53:35.668Z,23.38
2023-02-24T13:56:28.248Z,20.67
2023-02-24T13:59:21.751Z,22.30
2023-02-24T14:01:52.247Z,21.08
2023-02-24T14:04:25.040Z,21.10
2023-02-24T14:06:56.602Z,19.00
2023-02-24T14:09:31.606Z,21.50
2023-02-24T14:12:02.567Z,20.40
2023-02-24T14:14:32.563Z,21.65
2023-02-24T14:17:00.763Z,21.27
2023-02-24T14:19:28.987Z,20.23
2023-02-24T14:22:00.295Z,25.13
2023-02-24T14:24:30.193Z,21.77
2023-02-24T14:27:00.164Z,22.52
2023-02-24T14:29:32.068Z,21.07
2023-02-24T14:32:01.361Z,21.40
2023-02-24T14:34:33.883Z,21.80
2023-02-24T14:37:05.123Z,23.70
2023-02-24T14:39:35.505Z,37.33
2023-02-24T14:42:15.037Z,29.33
2023-02-24T14:44:45.943Z,23.52
2023-02-24T14:47:15.649Z,25.55
2023-02-24T14:49:53.783Z,25.25
2023-02-24T14:52:29.851Z,23.80
2023-02-24T14:55:04.070Z,21.00
2023-02-24T14:57:36.850Z,21.42
2023-02-24T15:00:12.319Z,27.00
2023-02-24T15:02:47.716Z,23.27
2023-02-24T15:05:17.016Z,26.05
2023-02-24T15:07:46.166Z,23.45
2023-02-24T15:10:25.615Z,26.15
2023-02-24T15:12:58.236Z,24.17
2023-02-24T15:15:30.444Z,30.92
2023-02-24T15:18:04.353Z,25.42
2023-02-24T15:20:35.522Z,29.20
2023-02-24T15:23:05.029Z,30.33
2023-02-24T15:25:43.883Z,35.55
2023-02-24T15:28:25.975Z,31.58
2023-02-24T15:31:00.977Z,34.42
2023-02-24T15:33:35.474Z,34.63
2023-02-24T15:36:09.901Z,31.95
2023-02-24T15:38:41.159Z,32.70
2023-02-24T15:41:12.960Z,31.17
2023-02-24T15:43:47.917Z,35.92
2023-02-24T15:46:26.196Z,30.85
2023-02-24T15:48:57.549Z,29.75
2023-02-24T15:51:32.779Z,38.17
2023-02-24T15:54:02.659Z,28.45
2023-02-24T15:56:34.967Z,31.55
2023-02-24T15:59:03.474Z,32.60
2023-02-24T16:01:32.703Z,36.75
2023-02-24T16:04:01.458Z,36.42
2023-02-24T16:06:30.114Z,38.70
2023-02-24T16:08:59.327Z,36.78
2023-02-24T16:11:33.931Z,33.90
2023-02-24T16:14:03.974Z,41.78
2023-02-24T16:16:33.662Z,42.50
2023-02-24T16:19:01.899Z,38.50
2023-02-24T16:21:30.302Z,41.63
2023-02-24T16:23:58.660Z,33.78
2023-02-24T16:26:27.003Z,41.65
2023-02-24T16:28:57.380Z,41.97
2023-02-24T16:31:28.084Z,39.17
2023-02-24T16:33:58.466Z,36.75
2023-02-24T16:36:28.297Z,40.95
2023-02-24T16:38:56.824Z,37.88
2023-02-24T16:41:25.474Z,35.63
2023-02-24T16:43:54.048Z,37.40
2023-02-24T16:46:24.252Z,36.40
2023-02-24T16:48:54.814Z,44.80
2023-02-24T16:51:23.350Z,47.53
2023-02-24T16:53:51.725Z,45.67
2023-02-24T16:56:20.383Z,43.38
2023-02-24T16:58:48.872Z,37.13
2023-02-24T17:01:21.413Z,40.47
2023-02-24T17:03:52.326Z,45.47
2023-02-24T17:06:23.888Z,40.13
2023-02-24T17:08:52.746Z,51.58
2023-02-24T17:11:23.229Z,46.95
2023-02-24T17:13:51.529Z,42.40
2023-02-24T17:16:19.827Z,38.22
2023-02-24T17:18:48.083Z,45.13
2023-02-24T17:21:18.081Z,39.55
2023-02-24T17:23:47.830Z,35.45
2023-02-24T17:26:16.475Z,42.42
2023-02-24T17:28:45.171Z,36.33
2023-02-24T17:31:13.634Z,37.38
2023-02-24T17:33:42.110Z,35.55
2023-02-24T17:36:10.544Z,35.80
2023-02-24T17:38:38.842Z,30.88
2023-02-24T17:41:08.517Z,37.30
2023-02-24T17:43:36.808Z,30.83
2023-02-24T17:46:07.302Z,34.92
2023-02-24T17:48:36.020Z,30.02
2023-02-24T17:51:04.400Z,28.23
2023-02-24T17:53:32.648Z,23.23
2023-02-24T17:56:05.000Z,31.23
2023-02-24T17:58:35.094Z,27.58
2023-02-24T18:01:05.649Z,33.85
2023-02-24T18:03:34.342Z,29.35
2023-02-24T18:06:04.360Z,33.40
2023-02-24T18:08:34.672Z,30.38
2023-02-24T18:11:03.730Z,34.83
2023-02-24T18:13:34.560Z,30.80
2023-02-24T18:16:03.077Z,31.30
2023-02-24T18:18:31.320Z,33.83
2023-02-24T18:21:03.086Z,33.45
2023-02-24T18:23:31.479Z,28.83
2023-02-24T18:26:02.510Z,34.15
2023-02-24T18:28:31.019Z,33.83
2023-02-24T18:31:03.266Z,27.08
2023-02-24T18:33:31.857Z,24.75
2023-02-24T18:36:01.031Z,29.98
2023-02-24T18:38:30.345Z,28.23
2023-02-24T18:41:00.139Z,28.08
2023-02-24T18:43:29.135Z,27.75
2023-02-24T18:45:58.945Z,48.08
2023-02-24T18:48:30.007Z,27.42
2023-02-24T18:50:59.445Z,24.63
2023-02-24T18:53:30.123Z,27.48
2023-02-24T18:56:02.453Z,32.90
2023-02-24T18:58:31.537Z,26.27
2023-02-24T19:01:00.326Z,32.97
2023-02-24T19:03:30.066Z,27.23
2023-02-24T19:05:58.485Z,34.08
2023-02-24T19:08:26.920Z,31.10
2023-02-24T19:10:56.105Z,33.95
2023-02-24T19:13:25.191Z,26.27
2023-02-24T19:15:53.744Z,28.60
2023-02-24T19:18:22.386Z,26.20
2023-02-24T19:20:52.360Z,27.85
2023-02-24T19:23:21.108Z,29.10
2023-02-24T19:25:49.996Z,27.35
2023-02-24T19:28:18.914Z,27.98
2023-02-24T19:30:47.950Z,32.13
2023-02-24T19:33:16.929Z,26.13
2023-02-24T19:35:45.887Z,24.63
2023-02-24T19:38:17.938Z,24.42
2023-02-24T19:40:47.128Z,27.42
2023-02-24T19:43:16.132Z,29.77
2023-02-24T19:45:45.467Z,26.20
2023-02-24T19:48:14.536Z,25.98
2023-02-24T19:50:43.742Z,30.70
2023-02-24T19:53:13.177Z,28.42
2023-02-24T19:55:49.858Z,27.00
2023-02-24T19:58:19.089Z,28.50
2023-02-24T20:00:48.628Z,26.10
2023-02-24T20:03:17.739Z,26.42
2023-02-24T20:05:46.679Z,28.42
2023-02-24T20:08:15.694Z,34.05
2023-02-24T20:10:46.195Z,31.58
2023-02-24T20:13:15.307Z,30.00
2023-02-24T20:15:44.232Z,26.65
2023-02-24T20:18:13.415Z,27.92
2023-02-24T20:20:42.590Z,30.60
2023-02-24T20:23:11.564Z,34.83
2023-02-24T20:25:41.302Z,30.27
2023-02-24T20:28:11.564Z,27.92
2023-02-24T20:30:40.456Z,30.95
2023-02-24T20:33:09.116Z,36.05
2023-02-24T20:35:40.667Z,29.85
2023-02-24T20:38:09.210Z,32.22
2023-02-24T20:40:37.552Z,32.45
2023-02-24T20:43:07.166Z,32.45
2023-02-24T20:45:38.847Z,31.00
2023-02-24T20:48:08.885Z,34.63
2023-02-24T20:50:37.180Z,29.13
2023-02-24T20:53:05.452Z,28.60
2023-02-24T20:55:33.820Z,36.28
2023-02-24T20:58:02.163Z,32.55
2023-02-24T21:00:30.433Z,24.42
2023-02-24T21:03:00.271Z,31.83
2023-02-24T21:05:29.077Z,27.38
2023-02-24T21:07:57.437Z,35.03
2023-02-24T21:10:26.240Z,28.13
2023-02-24T21:12:54.610Z,30.63
2023-02-24T21:15:22.922Z,29.77
2023-02-24T21:17:51.224Z,27.80
2023-02-24T21:20:21.143Z,30.83
2023-02-24T21:22:49.490Z,27.98
2023-02-24T21:25:17.882Z,24.20
2023-02-24T21:27:48.400Z,27.95
2023-02-24T21:30:16.940Z,27.60
2023-02-24T21:32:45.267Z,28.10
2023-02-24T21:35:13.604Z,26.52
2023-02-24T21:37:43.396Z,28.75
2023-02-24T21:40:13.105Z,30.02
2023-02-24T21:42:43.906Z,29.75
2023-02-24T21:45:13.950Z,38.58
2023-02-24T21:47:42.499Z,28.92
2023-02-24T21:50:13.673Z,37.55
2023-02-24T21:52:45.570Z,38.53
2023-02-24T21:55:15.196Z,33.63
2023-02-24T21:57:45.044Z,30.83
2023-02-24T22:00:22.757Z,34.65
2023-02-24T22:02:54.418Z,32.85
2023-02-24T22:05:25.229Z,29.90
2023-02-24T22:07:54.904Z,31.40
2023-02-24T22:10:24.334Z,35.28
2023-02-24T22:12:56.924Z,40.47
2023-02-24T22:15:25.109Z,33.28
2023-02-24T22:17:53.621Z,34.25
2023-02-24T22:20:21.972Z,37.08
2023-02-24T22:22:50.251Z,39.35
2023-02-24T22:25:20.036Z,40.10
2023-02-24T22:27:48.238Z,42.78
2023-02-24T22:30:16.631Z,37.33
2023-02-24T22:32:44.887Z,36.45
2023-02-24T22:35:13.125Z,41.63
2023-02-24T22:37:41.439Z,35.63
2023-02-24T22:40:10.981Z,32.38
2023-02-24T22:42:40.748Z,45.15
2023-02-24T22:45:10.454Z,36.90
2023-02-24T22:47:38.848Z,41.05
2023-02-24T22:50:07.575Z,35.28
2023-02-24T22:52:35.780Z,33.58
2023-02-24T22:55:03.980Z,38.80
2023-02-24T22:57:34.061Z,36.05
2023-02-24T23:00:09.601Z,36.03
2023-02-24T23:02:38.245Z,36.88
2023-02-24T23:05:07.356Z,35.05
2023-02-24T23:07:37.350Z,37.53
2023-02-24T23:10:06.625Z,39.35
2023-02-24T23:12:35.768Z,37.85
2023-02-24T23:15:06.502Z,35.83
2023-02-24T23:17:35.385Z,38.15
2023-02-24T23:20:06.148Z,34.33
2023-02-24T23:22:34.440Z,40.63
2023-02-24T23:25:02.730Z,45.42
2023-02-24T23:27:30.995Z,38.38
2023-02-24T23:29:59.317Z,40.67
2023-02-24T23:32:29.042Z,34.33
2023-02-24T23:34:57.362Z,35.95
2023-02-24T23:37:26.208Z,37.10
2023-02-24T23:39:54.540Z,42.45
2023-02-24T23:42:23.033Z,37.28
2023-02-24T23:44:51.194Z,41.72
2023-02-24T23:47:19.660Z,38.45
2023-02-24T23:49:49.625Z,36.78
2023-02-24T23:52:18.262Z,41.97
2023-02-24T23:54:49.910Z,32.83
2023-02-24T23:57:18.351Z,33.70
2023-02-24T23:59:46.622Z,32.53
